Linden, Missouri
Current Conditions -  °F | °C
As of 5:52 PM on Tuesday 25 Nov 2014 (Local Time) from KSGF Reporting Station
Clear Clear  
Wind Chill: 33°   Ceiling: Unl
Heat Index: 33°   Visibility: 10mi
Dew Point: 19°   Wind: 0mph
Humidity: 56%   Direction: NA
Pressure: 30.12"   Gusts: NA
Location:  37.1319°N, 93.0612°W
Report Text: KSGF 252352Z 00000KT 10SM CLR 01/M07 A3012 RMK AO2 SLP213 T00061072 10072 20006 55004
Loading
Personal Weather Stations






























Interactive Weather Map New forecast layout! Learn more

10-Day Weather Forecast

Advertisements
Track Severe Weather on mobile